Vannes-Meucon Airport

LFRV · Morbihan, Bretagna, Francia

Storia di METAR LFRV · Vannes-Meucon Airport

Di seguito sono riportati i METAR degli ultimi giorni. Seleziona un anno per sfogliare i METAR più vecchi, dall'anno 2007 in poi.

25 luglio 2024

Tempo Codice Tempo meteorologico Temp. Vista Base nuvolosa Vento METAR/SPECI
21:30
L
18 °C 10 km+ 300 ft 230° 230° 6 kt METAR LFRV 251930Z AUTO 23006KT 200V260 9999 OVC003/// ///TCU 18/18 Q1013
21:00
L
18 °C 8 km 300 ft 230° 230° 5 kt METAR LFRV 251900Z AUTO 23005KT 200V270 8000 OVC003/// ///TCU 18/18 Q1013
20:30
I
19 °C 2,9 km 700 ft 250° 250° 6 kt METAR LFRV 251830Z AUTO 25006KT 210V280 2900 DZ BR BKN007/// BKN011/// BKN021/// ///TCU 19/18 Q1013
20:00
M
20 °C 10 km+ 1.300 ft 230° 230° 7 kt METAR LFRV 251800Z AUTO 23007KT 210V270 9999 BKN013 BKN020 OVC036 20/17 Q1013
19:30
M
20 °C 10 km+ 1.600 ft 240° 240° 7 kt METAR LFRV 251730Z AUTO 24007KT 180V280 9999 BKN016 BKN084 OVC100 20/17 Q1013
19:00
V
21 °C 10 km+ 11.000 ft 240° 240° 8 kt METAR LFRV 251700Z AUTO 24008KT 210V270 9999 FEW017 OVC110 21/17 Q1013
18:30
M
21 °C 10 km+ 1.800 ft 230° 230° 8 kt METAR LFRV 251630Z AUTO 23008KT 190V270 9999 BKN018 BKN041 BKN110 21/17 Q1014
18:00
M
22 °C 10 km+ 1.900 ft 250° 250° 9 kt METAR LFRV 251600Z AUTO 25009KT 210V290 9999 BKN019 BKN024 BKN038 22/17 Q1014
17:30
M
22 °C 10 km+ 1.800 ft 250° 250° 9 kt METAR LFRV 251530Z AUTO 25009KT 210V280 9999 BKN018 OVC039 22/18 Q1014
17:00
M
22 °C 10 km+ 1.600 ft 230° 230° 8 kt METAR LFRV 251500Z AUTO 23008KT 190V270 9999 BKN016 OVC036 22/18 Q1014
16:30
M
22 °C 10 km+ 1.400 ft 240° 240° 7 kt METAR LFRV 251430Z AUTO 24007KT 200V300 9999 OVC014 22/18 Q1014
16:00
M
21 °C 10 km+ 1.300 ft 240° 240° 8 kt METAR LFRV 251400Z AUTO 24008KT 190V280 9999 BKN013 BKN034 BKN090 21/18 Q1014
15:30
M
21 °C 10 km+ 1.200 ft 240° 240° 8 kt METAR LFRV 251330Z AUTO 24008KT 200V280 9999 OVC012 21/18 Q1015
15:00
M
20 °C 10 km+ 1.200 ft 260° 260° 8 kt METAR LFRV 251300Z AUTO 26008KT 220V290 9999 OVC012 20/18 Q1015
14:30
M
20 °C 10 km+ 1.200 ft 230° 230° 9 kt METAR LFRV 251230Z AUTO 23009KT 190V270 9999 OVC012 20/17 Q1015
14:00
M
20 °C 10 km+ 1.200 ft 220° 220° 7 kt METAR LFRV 251200Z AUTO 22007KT 190V270 9999 BKN012 OVC025 20/18 Q1015
13:30
M
20 °C 10 km+ 1.300 ft 210° 210° 7 kt METAR LFRV 251130Z AUTO 21007KT 170V250 9999 OVC013 20/17 Q1015
13:00
M
20 °C 10 km+ 1.200 ft 210° 210° 7 kt METAR LFRV 251100Z AUTO 21007KT 170V250 9999 OVC012 20/17 Q1015
12:30
M
20 °C 10 km+ 1.200 ft 200° 200° 6 kt METAR LFRV 251030Z AUTO 20006KT 160V240 9999 BKN012 OVC018 20/17 Q1015
12:00
M
19 °C 10 km+ 1.200 ft 220° 220° 5 kt METAR LFRV 251000Z AUTO 22005KT 150V260 9999 OVC012 19/16 Q1016
11:30
M
18 °C 10 km+ 1.600 ft 220° 220° 6 kt METAR LFRV 250930Z AUTO 22006KT 170V250 9999 OVC016 18/15 Q1016
11:00
M
17 °C 10 km+ 1.800 ft 210° 210° 5 kt METAR LFRV 250900Z AUTO 21005KT 170V240 9999 BKN018 BKN025 BKN076 17/15 Q1016
10:30
M
17 °C 10 km+ 2.400 ft 220° 220° 5 kt METAR LFRV 250830Z AUTO 22005KT 160V260 9999 FEW008 OVC024 17/15 Q1016
10:00
M
16 °C 10 km+ 2.700 ft 220° 220° 4 kt METAR LFRV 250800Z AUTO 22004KT 190V280 9999 SCT022 BKN027 BKN078 16/15 Q1016
09:30
M
16 °C 10 km+ 2.000 ft 230° 230° 4 kt METAR LFRV 250730Z AUTO 23004KT 180V270 9999 BKN020 OVC026 16/15 Q1017
09:00
M
16 °C 10 km+ 2.600 ft 260° 260° 4 kt METAR LFRV 250700Z AUTO 26004KT 230V290 9999 OVC026 16/14 Q1017
08:30
V
15 °C 10 km+ 6.000 ft 280° 280° 4 kt METAR LFRV 250630Z AUTO 28004KT 240V300 9999 SCT030 BKN060 BKN070 15/14 Q1017
08:00
V
15 °C 10 km+ - Var Var 3 kt METAR LFRV 250600Z AUTO VRB03KT CAVOK 15/14 Q1017
07:30
V
14 °C 10 km+ - Var Var 2 kt METAR LFRV 250530Z AUTO VRB02KT CAVOK 14/13 Q1017
07:00
V
13 °C 10 km+ - 360° 360° 0 kt METAR LFRV 250500Z AUTO 00000KT CAVOK 13/13 Q1017
06:30
V
13 °C 10 km+ - 310° 310° 2 kt METAR LFRV 250430Z AUTO 31002KT 9999 FEW034 SCT068 13/13 Q1017
06:00
V
14 °C 10 km+ 3.400 ft 360° 360° 0 kt METAR LFRV 250400Z AUTO 00000KT 9999 OVC034 14/13 Q1017
05:30
V
13 °C 10 km+ - 330° 330° 3 kt METAR LFRV 250330Z AUTO 33003KT 9999 FEW034 13/12 Q1017
05:00
V
14 °C 10 km+ - 330° 330° 4 kt METAR LFRV 250300Z AUTO 33004KT CAVOK 14/13 Q1017
04:30
V
14 °C 10 km+ - 340° 340° 4 kt METAR LFRV 250230Z AUTO 34004KT CAVOK 14/13 Q1017
04:00
V
14 °C 10 km+ - 350° 350° 5 kt METAR LFRV 250200Z AUTO 35005KT CAVOK 14/13 Q1018
03:30
V
14 °C 10 km+ - 330° 330° 6 kt METAR LFRV 250130Z AUTO 33006KT CAVOK 14/14 Q1018
03:00
V
14 °C 10 km+ - 330° 330° 7 kt METAR LFRV 250100Z AUTO 33007KT CAVOK 14/13 Q1018
02:30
V
14 °C 10 km+ - 340° 340° 5 kt METAR LFRV 250030Z AUTO 34005KT CAVOK 14/13 Q1018
02:00
V
14 °C 10 km+ - 330° 330° 6 kt METAR LFRV 250000Z AUTO 33006KT CAVOK 14/13 Q1019
01:30
V
14 °C 10 km+ - 330° 330° 4 kt METAR LFRV 242330Z AUTO 33004KT CAVOK 14/13 Q1019
01:00
V
14 °C 10 km+ - 300° 300° 4 kt METAR LFRV 242300Z AUTO 30004KT CAVOK 14/13 Q1019
00:30
V
14 °C 10 km+ - 290° 290° 4 kt METAR LFRV 242230Z AUTO 29004KT CAVOK 14/13 Q1019
00:00
V
14 °C 10 km+ - 290° 290° 3 kt METAR LFRV 242200Z AUTO 29003KT CAVOK 14/13 Q1019

24 luglio 2024

Tempo Codice Tempo meteorologico Temp. Vista Base nuvolosa Vento METAR/SPECI
23:30
V
14 °C 10 km+ - 300° 300° 5 kt METAR LFRV 242130Z AUTO 30005KT CAVOK 14/13 Q1020
23:00
V
15 °C 10 km+ - 290° 290° 6 kt METAR LFRV 242100Z AUTO 29006KT CAVOK 15/13 Q1020
22:30
V
16 °C 10 km+ - 270° 270° 4 kt METAR LFRV 242030Z AUTO 27004KT CAVOK 16/14 Q1020
22:00
V
17 °C 10 km+ - 270° 270° 4 kt METAR LFRV 242000Z AUTO 27004KT 230V290 CAVOK 17/14 Q1020
21:30
V
18 °C 10 km+ - 240° 240° 3 kt METAR LFRV 241930Z AUTO 24003KT CAVOK 18/14 Q1020
21:00
V
19 °C 10 km+ - 290° 290° 4 kt METAR LFRV 241900Z AUTO 29004KT CAVOK 19/14 Q1020
20:30
V
20 °C 10 km+ - 270° 270° 4 kt METAR LFRV 241830Z AUTO 27004KT 230V310 CAVOK 20/14 Q1020
20:00
V
20 °C 10 km+ - 290° 290° 5 kt METAR LFRV 241800Z AUTO 29005KT 250V320 CAVOK 20/14 Q1020
19:30
V
21 °C 10 km+ - 280° 280° 4 kt METAR LFRV 241730Z AUTO 28004KT 250V330 9999 FEW029 21/14 Q1020
19:00
V
21 °C 10 km+ - 270° 270° 5 kt METAR LFRV 241700Z AUTO 27005KT 210V330 9999 FEW030 21/14 Q1020
18:30
V
21 °C 10 km+ - 300° 300° 4 kt METAR LFRV 241630Z AUTO 30004KT 230V350 9999 FEW012 21/15 Q1020
18:00
V
20 °C 10 km+ - Var Var 2 kt METAR LFRV 241600Z AUTO VRB02KT CAVOK 20/14 Q1021
17:30
V
20 °C 10 km+ - 290° 290° 4 kt METAR LFRV 241530Z AUTO 29004KT 250V340 9999 FEW030 20/14 Q1021
17:00
M
21 °C 10 km+ 2.900 ft 320° 320° 4 kt METAR LFRV 241500Z AUTO 32004KT 270V010 9999 BKN029 21/14 Q1021
16:30
M
20 °C 10 km+ 2.800 ft 310° 310° 3 kt METAR LFRV 241430Z AUTO 31003KT 270V040 9999 FEW011 BKN028 20/13 Q1022
16:00
M
20 °C 10 km+ 2.900 ft Var Var 2 kt METAR LFRV 241400Z AUTO VRB02KT 9999 OVC029 20/14 Q1022
15:30
M
20 °C 10 km+ 2.900 ft Var Var 3 kt METAR LFRV 241330Z AUTO VRB03KT 9999 OVC029 20/14 Q1022
15:00
M
19 °C 10 km+ 2.600 ft 340° 340° 4 kt METAR LFRV 241300Z AUTO 34004KT 310V030 9999 OVC026 19/14 Q1022
14:30
M
19 °C 10 km+ 2.700 ft Var Var 3 kt METAR LFRV 241230Z AUTO VRB03KT 9999 OVC027 19/13 Q1022
14:00
M
19 °C 10 km+ 2.600 ft Var Var 3 kt METAR LFRV 241200Z AUTO VRB03KT 9999 OVC026 19/13 Q1022
13:30
M
19 °C 10 km+ 2.500 ft Var Var 2 kt METAR LFRV 241130Z AUTO VRB02KT 9999 OVC025 19/13 Q1023
13:00
M
19 °C 10 km+ 2.500 ft Var Var 2 kt METAR LFRV 241100Z AUTO VRB02KT 9999 OVC025 19/13 Q1023
12:30
M
18 °C 10 km+ 2.500 ft Var Var 2 kt METAR LFRV 241030Z AUTO VRB02KT 9999 OVC025 18/13 Q1023
12:00
M
18 °C 10 km+ 2.400 ft Var Var 2 kt METAR LFRV 241000Z AUTO VRB02KT 9999 OVC024 18/12 Q1023
11:30
M
17 °C 10 km+ 2.500 ft 340° 340° 4 kt METAR LFRV 240930Z AUTO 34004KT 290V010 9999 OVC025 17/13 Q1023
11:00
M
17 °C 10 km+ 2.400 ft Var Var 2 kt METAR LFRV 240900Z AUTO VRB02KT 9999 OVC024 17/14 Q1023
10:30
M
16 °C 10 km+ 2.400 ft 050° 050° 3 kt METAR LFRV 240830Z AUTO 05003KT 9999 OVC024 16/14 Q1023
10:00
M
16 °C 10 km+ 2.400 ft 060° 060° 3 kt METAR LFRV 240800Z AUTO 06003KT 020V080 9999 OVC024 16/14 Q1023
09:30
M
15 °C 10 km+ 2.400 ft 060° 060° 4 kt METAR LFRV 240730Z AUTO 06004KT 9999 OVC024 15/13 Q1023
09:00
M
15 °C 10 km+ 2.400 ft 030° 030° 5 kt METAR LFRV 240700Z AUTO 03005KT 9999 OVC024 15/13 Q1023
08:30
M
14 °C 10 km+ 2.400 ft 030° 030° 6 kt METAR LFRV 240630Z AUTO 03006KT 9999 OVC024 14/13 Q1023
08:00
M
14 °C 10 km+ 2.400 ft 020° 020° 4 kt METAR LFRV 240600Z AUTO 02004KT 9999 OVC024 14/13 Q1023
07:30
M
14 °C 10 km+ 2.400 ft 360° 360° 5 kt METAR LFRV 240530Z AUTO 36005KT 330V030 9999 OVC024 14/13 Q1023
07:00
M
14 °C 10 km+ 2.400 ft 030° 030° 6 kt METAR LFRV 240500Z AUTO 03006KT 9999 OVC024 14/13 Q1023
06:30
M
13 °C 10 km+ 2.500 ft 360° 360° 4 kt METAR LFRV 240430Z AUTO 36004KT 9999 OVC025 13/13 Q1023
06:00
M
13 °C 10 km+ 2.700 ft 010° 010° 3 kt METAR LFRV 240400Z AUTO 01003KT 9999 OVC027 13/13 Q1023
05:30
V
11 °C 10 km+ - 010° 010° 4 kt METAR LFRV 240330Z AUTO 01004KT 9999 FEW029 11/11 Q1023
05:00
V
12 °C 10 km+ - 010° 010° 4 kt METAR LFRV 240300Z AUTO 01004KT CAVOK 12/11 Q1023
04:30
V
12 °C 10 km+ - 010° 010° 4 kt METAR LFRV 240230Z AUTO 01004KT CAVOK 12/11 Q1023
04:00
V
12 °C 10 km+ - 010° 010° 4 kt METAR LFRV 240200Z AUTO 01004KT CAVOK 12/11 Q1023
03:30
V
12 °C 10 km+ - 010° 010° 5 kt METAR LFRV 240130Z AUTO 01005KT CAVOK 12/12 Q1023
03:00
V
13 °C 10 km+ - 020° 020° 3 kt METAR LFRV 240100Z AUTO 02003KT CAVOK 13/12 Q1023
02:30
V
13 °C 10 km+ - 020° 020° 3 kt METAR LFRV 240030Z AUTO 02003KT CAVOK 13/12 Q1023
02:00
V
13 °C 10 km+ - 030° 030° 5 kt METAR LFRV 240000Z AUTO 03005KT CAVOK 13/12 Q1024
01:30
V
14 °C 10 km+ - 030° 030° 6 kt METAR LFRV 232330Z AUTO 03006KT CAVOK 14/12 Q1024
01:00
V
14 °C 10 km+ - 030° 030° 6 kt METAR LFRV 232300Z AUTO 03006KT 9999 FEW034 14/13 Q1024
00:30
V
15 °C 10 km+ - 030° 030° 7 kt METAR LFRV 232230Z AUTO 03007KT 9999 FEW035 15/13 Q1024
00:00
V
15 °C 10 km+ - 030° 030° 6 kt METAR LFRV 232200Z AUTO 03006KT 9999 FEW036 15/13 Q1024

23 luglio 2024

Tempo Codice Tempo meteorologico Temp. Vista Base nuvolosa Vento METAR/SPECI
23:30
V
16 °C 10 km+ - 030° 030° 7 kt METAR LFRV 232130Z AUTO 03007KT CAVOK 16/13 Q1024
23:00
V
16 °C 10 km+ - 020° 020° 6 kt METAR LFRV 232100Z AUTO 02006KT CAVOK 16/13 Q1023
22:30
V
17 °C 10 km+ - 360° 360° 6 kt METAR LFRV 232030Z AUTO 36006KT CAVOK 17/13 Q1023
22:00
V
17 °C 10 km+ - 360° 360° 6 kt METAR LFRV 232000Z AUTO 36006KT CAVOK 17/13 Q1023
21:30
V
18 °C 10 km+ - 360° 360° 5 kt METAR LFRV 231930Z AUTO 36005KT CAVOK 18/13 Q1023
21:00
V
20 °C 10 km+ - 010° 010° 6 kt METAR LFRV 231900Z AUTO 01006KT CAVOK 20/14 Q1022
20:30
V
21 °C 10 km+ - 350° 350° 6 kt METAR LFRV 231830Z AUTO 35006KT 320V020 CAVOK 21/14 Q1022
20:00
V
22 °C 10 km+ - 340° 340° 6 kt METAR LFRV 231800Z AUTO 34006KT 310V020 CAVOK 22/14 Q1022
19:30
V
22 °C 10 km+ - 020° 020° 6 kt METAR LFRV 231730Z AUTO 02006KT 360V060 9999 FEW037 22/14 Q1022
19:00
V
22 °C 10 km+ - 330° 330° 6 kt METAR LFRV 231700Z AUTO 33006KT 300V020 CAVOK 22/15 Q1022
18:30
V
22 °C 10 km+ - 360° 360° 7 kt METAR LFRV 231630Z AUTO 36007KT 330V040 9999 FEW039 22/15 Q1022
18:00
V
23 °C 10 km+ - 330° 330° 7 kt METAR LFRV 231600Z AUTO 33007KT 310V010 9999 SCT038 23/15 Q1022
17:30
V
22 °C 10 km+ 3.800 ft 350° 350° 7 kt METAR LFRV 231530Z AUTO 35007KT 9999 BKN038 22/15 Q1022
17:00
V
23 °C 10 km+ 3.800 ft 330° 330° 6 kt METAR LFRV 231500Z AUTO 33006KT 310V040 9999 BKN038 23/15 Q1022
16:30
V
23 °C 10 km+ 3.800 ft Var Var 5 kt METAR LFRV 231430Z AUTO VRB05KT 9999 BKN038 23/15 Q1022
16:00
V
23 °C 10 km+ 3.500 ft 360° 360° 5 kt METAR LFRV 231400Z AUTO 36005KT 290V070 9999 BKN035 23/16 Q1022
15:30
V
23 °C 10 km+ 3.700 ft 290° 290° 4 kt METAR LFRV 231330Z AUTO 29004KT 220V340 9999 BKN037 23/15 Q1022
15:00
V
22 °C 10 km+ 3.600 ft 310° 310° 6 kt METAR LFRV 231300Z AUTO 31006KT 290V010 9999 BKN036 22/15 Q1022
14:30
V
22 °C 10 km+ 3.400 ft 300° 300° 8 kt METAR LFRV 231230Z AUTO 30008KT 240V340 9999 BKN034 22/15 Q1022
14:00
V
22 °C 10 km+ 3.200 ft 280° 280° 7 kt METAR LFRV 231200Z AUTO 28007KT 210V340 9999 BKN032 22/15 Q1022
13:30
M
22 °C 10 km+ 2.900 ft 300° 300° 7 kt METAR LFRV 231130Z AUTO 30007KT 230V340 9999 BKN029 22/15 Q1022
13:00
M
21 °C 10 km+ 2.700 ft 310° 310° 7 kt METAR LFRV 231100Z AUTO 31007KT 240V360 9999 BKN027 BKN033 21/16 Q1022
12:30
M
21 °C 10 km+ 2.500 ft 280° 280° 4 kt METAR LFRV 231030Z AUTO 28004KT 220V320 9999 BKN025 21/16 Q1022
12:00
M
20 °C 10 km+ 2.200 ft 300° 300° 6 kt METAR LFRV 231000Z AUTO 30006KT 240V360 9999 BKN022 BKN028 20/16 Q1022
11:30
M
19 °C 10 km+ 2.000 ft 300° 300° 8 kt METAR LFRV 230930Z AUTO 30008KT 270V330 9999 BKN020 BKN025 19/16 Q1022
11:00
M
19 °C 10 km+ 1.700 ft 280° 280° 7 kt METAR LFRV 230900Z AUTO 28007KT 260V330 9999 BKN017 BKN022 19/17 Q1022
10:30
M
19 °C 10 km+ 1.900 ft 290° 290° 7 kt METAR LFRV 230830Z AUTO 29007KT 260V320 9999 BKN019 BKN024 19/17 Q1022
10:00
M
18 °C 10 km+ 1.600 ft 280° 280° 6 kt METAR LFRV 230800Z AUTO 28006KT 240V330 9999 SCT009 BKN016 BKN024 18/18 Q1021
09:30
I
18 °C 10 km+ 600 ft 270° 270° 5 kt METAR LFRV 230730Z AUTO 27005KT 220V310 9999 BKN006 BKN011 OVC021 18/18 Q1021
09:00
I
17 °C 10 km+ 700 ft 270° 270° 7 kt METAR LFRV 230700Z AUTO 27007KT 240V300 9999 BKN007 OVC012 17/17 Q1021
08:30
L
17 °C 10 km+ 400 ft 260° 260° 5 kt METAR LFRV 230630Z AUTO 26005KT 220V290 9999 OVC004 17/17 Q1021
08:00
L
17 °C 10 km+ 200 ft 270° 270° 5 kt METAR LFRV 230600Z AUTO 27005KT 200V300 9999 OVC002 17/17 Q1021
Segnala modifiche